Terminal Aerodrome Forecast
Issued by NWS

Home | Current Version | Previous Version | Text Only | Print | Product List | Glossary On
Versions: 1 2 3 4 5 6 7 8 9 10 11 12 13 14 15 16
000
FTUS41 KPBZ 261130
TAFMGW
TAF
KMGW 261130Z 2612/2712 36007KT 5SM BR BKN005
      TEMPO 2612/2613 4SM BR SCT005
     FM261400 31003KT P6SM SCT035
     FM270200 00000KT P6SM BKN110
     FM270800 00000KT P6SM VCSH BKN045=

USA.gov is the U.S. government's official web portal to all federal, state and local government web resources and services.